Terminal Aerodrome Forecast
Issued by NWS

Home | Current Version | Previous Version | Text Only | Print | Product List | Glossary On
Versions: 1 2 3 4 5 6 7 8 9 10 11 12 13 14 15 16 17 18 19 20 21 22 23 24 25 26 27 28
000
FTUS41 KBTV 261130
TAFSLK
TAF
KSLK 261130Z 2612/2712 05009KT 6SM -SHRA BR OVC035
      TEMPO 2612/2615 3SM -SHRA BR OVC025
     FM261500 15012G24KT 6SM -SHRA BR OVC045 WS020/17040KT
     FM270400 18008G17KT 4SM -SHRA BR OVC023
     FM270500 20007KT 4SM -SHRA BR OVC018
     FM270800 23007KT 4SM -SHRA BR OVC009
     FM271000 24008KT 2SM -SHRASN BR OVC011=

USA.gov is the U.S. government's official web portal to all federal, state and local government web resources and services.